sensor_id;sensor_type;location;lat;lon;timestamp;pressure;altitude;pressure_sealevel;temperature;humidity
69184;BME280;56291;53.960;27.550;2023-06-22T10:07:45;98992.72;;;34.32;26.09
69184;BME280;56291;53.960;27.550;2023-06-22T10:10:12;98976.16;;;34.10;25.74
69184;BME280;56291;53.960;27.550;2023-06-22T10:12:45;98974.38;;;34.19;26.27
69184;BME280;56291;53.960;27.550;2023-06-22T10:15:11;98979.59;;;34.02;23.67
69184;BME280;56291;53.960;27.550;2023-06-22T10:17:43;98975.78;;;34.17;25.39
69184;BME280;56291;53.960;27.550;2023-06-22T10:20:09;98978.16;;;34.37;25.88
69184;BME280;56291;53.960;27.550;2023-06-22T10:22:40;98978.88;;;34.43;25.23
69184;BME280;56291;53.960;27.550;2023-06-22T10:25:07;98974.53;;;34.42;24.80
69184;BME280;56291;53.960;27.550;2023-06-22T10:27:33;98988.13;;;34.28;24.79
69184;BME280;56291;53.960;27.550;2023-06-22T10:30:02;98972.84;;;34.27;25.75
69184;BME280;56291;53.960;27.550;2023-06-22T10:32:28;98976.31;;;34.32;25.10
69184;BME280;56291;53.960;27.550;2023-06-22T10:34:57;98969.28;;;34.45;25.21
69184;BME280;56291;53.960;27.550;2023-06-22T10:37:23;98966.31;;;34.70;25.02
69184;BME280;56291;53.960;27.550;2023-06-22T10:39:49;98967.75;;;34.95;24.75
69184;BME280;56291;53.960;27.550;2023-06-22T10:42:15;98966.88;;;35.08;23.67
69184;BME280;56291;53.960;27.550;2023-06-22T10:44:41;98966.53;;;35.24;24.79
69184;BME280;56291;53.960;27.550;2023-06-22T10:47:10;98975.88;;;35.23;24.62
69184;BME280;56291;53.960;27.550;2023-06-22T10:49:38;98972.22;;;35.27;25.12
69184;BME280;56291;53.960;27.550;2023-06-22T10:52:06;98966.78;;;35.50;24.34
69184;BME280;56291;53.960;27.550;2023-06-22T10:54:33;98969.41;;;35.55;23.67
69184;BME280;56291;53.960;27.550;2023-06-22T10:57:00;98976.00;;;35.54;23.08
69184;BME280;56291;53.960;27.550;2023-06-22T10:59:27;98965.56;;;35.56;22.49
69184;BME280;56291;53.960;27.550;2023-06-22T11:01:57;98973.06;;;35.73;22.97
69184;BME280;56291;53.960;27.550;2023-06-22T11:04:26;98963.03;;;35.68;22.31
69184;BME280;56291;53.960;27.550;2023-06-22T11:06:52;98963.38;;;35.90;22.53
69184;BME280;56291;53.960;27.550;2023-06-22T11:09:18;98953.50;;;36.11;23.07
69184;BME280;56291;53.960;27.550;2023-06-22T11:11:51;98960.38;;;36.00;22.30
69184;BME280;56291;53.960;27.550;2023-06-22T11:14:19;98954.38;;;36.29;23.00
69184;BME280;56291;53.960;27.550;2023-06-22T11:16:46;98951.25;;;36.45;22.28
69184;BME280;56291;53.960;27.550;2023-06-22T11:19:12;98945.66;;;36.67;22.52
69184;BME280;56291;53.960;27.550;2023-06-22T11:21:38;98946.47;;;36.68;22.10
69184;BME280;56291;53.960;27.550;2023-06-22T11:24:05;98944.94;;;36.44;21.89
69184;BME280;56291;53.960;27.550;2023-06-22T11:26:31;98941.72;;;36.33;22.31
69184;BME280;56291;53.960;27.550;2023-06-22T11:28:59;98930.78;;;36.51;21.83
69184;BME280;56291;53.960;27.550;2023-06-22T11:31:25;98936.34;;;36.28;21.50
69184;BME280;56291;53.960;27.550;2023-06-22T11:33:51;98941.53;;;36.39;21.31
69184;BME280;56291;53.960;27.550;2023-06-22T11:36:18;98945.28;;;36.11;21.37
69184;BME280;56291;53.960;27.550;2023-06-22T11:38:47;98965.31;;;35.89;23.12
69184;BME280;56291;53.960;27.550;2023-06-22T11:41:13;98960.06;;;35.33;24.50
69184;BME280;56291;53.960;27.550;2023-06-22T11:43:52;98973.16;;;35.23;24.52
69184;BME280;56291;53.960;27.550;2023-06-22T11:46:18;98980.88;;;35.07;25.64
69184;BME280;56291;53.960;27.550;2023-06-22T11:48:44;98983.34;;;34.53;26.19
69184;BME280;56291;53.960;27.550;2023-06-22T11:51:10;98989.00;;;34.56;26.30
69184;BME280;56291;53.960;27.550;2023-06-22T11:53:36;98985.75;;;34.40;26.77
69184;BME280;56291;53.960;27.550;2023-06-22T11:56:03;98990.50;;;34.35;27.12
69184;BME280;56291;53.960;27.550;2023-06-22T11:58:32;98990.28;;;33.84;27.75
69184;BME280;56291;53.960;27.550;2023-06-22T12:00:59;99002.44;;;33.73;28.29
69184;BME280;56291;53.960;27.550;2023-06-22T12:03:26;99016.97;;;33.49;28.21
69184;BME280;56291;53.960;27.550;2023-06-22T12:05:52;99000.00;;;33.14;29.34
69184;BME280;56291;53.960;27.550;2023-06-22T12:08:21;99012.22;;;32.73;29.84
69184;BME280;56291;53.960;27.550;2023-06-22T12:10:50;99012.47;;;32.77;29.98
69184;BME280;56291;53.960;27.550;2023-06-22T12:13:16;99015.88;;;32.58;30.46
69184;BME280;56291;53.960;27.550;2023-06-22T12:15:57;99008.84;;;32.57;30.84
69184;BME280;56291;53.960;27.550;2023-06-22T12:18:24;99011.13;;;32.21;31.47
69184;BME280;56291;53.960;27.550;2023-06-22T12:20:50;99010.06;;;32.17;31.43
69184;BME280;56291;53.960;27.550;2023-06-22T12:23:16;99017.28;;;31.97;32.09
69184;BME280;56291;53.960;27.550;2023-06-22T12:25:44;99026.09;;;31.78;33.13
69184;BME280;56291;53.960;27.550;2023-06-22T12:28:10;99018.81;;;31.24;35.81
69184;BME280;56291;53.960;27.550;2023-06-22T12:30:36;99009.94;;;31.03;35.81
69184;BME280;56291;53.960;27.550;2023-06-22T12:33:02;99013.47;;;30.98;36.91
69184;BME280;56291;53.960;27.550;2023-06-22T12:35:29;99018.72;;;30.79;37.10
69184;BME280;56291;53.960;27.550;2023-06-22T12:37:55;99016.59;;;30.61;37.33
69184;BME280;56291;53.960;27.550;2023-06-22T12:40:21;99022.06;;;30.50;36.40
69184;BME280;56291;53.960;27.550;2023-06-22T12:42:47;99026.69;;;30.29;37.27
69184;BME280;56291;53.960;27.550;2023-06-22T12:45:13;99035.94;;;30.07;38.49
69184;BME280;56291;53.960;27.550;2023-06-22T12:47:40;99028.06;;;29.96;36.87
69184;BME280;56291;53.960;27.550;2023-06-22T12:50:16;99022.09;;;30.24;34.41
69184;BME280;56291;53.960;27.550;2023-06-22T12:52:43;99022.06;;;30.14;33.84
69184;BME280;56291;53.960;27.550;2023-06-22T12:55:09;99022.59;;;29.80;35.33
69184;BME280;56291;53.960;27.550;2023-06-22T12:57:35;99028.81;;;29.60;34.82
69184;BME280;56291;53.960;27.550;2023-06-22T13:00:02;99008.72;;;29.61;34.34
69184;BME280;56291;53.960;27.550;2023-06-22T13:02:30;99010.34;;;29.47;33.92
69184;BME280;56291;53.960;27.550;2023-06-22T13:04:56;99014.09;;;29.30;34.81
69184;BME280;56291;53.960;27.550;2023-06-22T13:07:22;99011.91;;;29.27;34.78
69184;BME280;56291;53.960;27.550;2023-06-22T13:09:48;99004.69;;;28.85;35.69
69184;BME280;56291;53.960;27.550;2023-06-22T13:12:17;98998.47;;;28.89;35.64
69184;BME280;56291;53.960;27.550;2023-06-22T13:14:49;98994.91;;;28.74;35.52
69184;BME280;56291;53.960;27.550;2023-06-22T13:17:15;99002.88;;;28.53;36.30
69184;BME280;56291;53.960;27.550;2023-06-22T13:19:42;99007.84;;;28.24;37.04
69184;BME280;56291;53.960;27.550;2023-06-22T13:22:30;99004.78;;;28.10;36.33
69184;BME280;56291;53.960;27.550;2023-06-22T13:24:57;98998.81;;;28.08;35.88
69184;BME280;56291;53.960;27.550;2023-06-22T13:27:27;98998.22;;;28.00;35.94
69184;BME280;56291;53.960;27.550;2023-06-22T13:29:54;99002.59;;;27.79;36.57
69184;BME280;56291;53.960;27.550;2023-06-22T13:32:24;99002.59;;;27.79;36.48
69184;BME280;56291;53.960;27.550;2023-06-22T13:34:51;98999.38;;;27.82;35.90
69184;BME280;56291;53.960;27.550;2023-06-22T13:37:18;98994.03;;;27.55;37.32
69184;BME280;56291;53.960;27.550;2023-06-22T13:39:45;98999.00;;;27.41;36.96
69184;BME280;56291;53.960;27.550;2023-06-22T13:42:11;98993.78;;;27.34;36.85
69184;BME280;56291;53.960;27.550;2023-06-22T13:44:37;98981.31;;;27.06;37.94
69184;BME280;56291;53.960;27.550;2023-06-22T13:47:10;98993.38;;;26.98;37.73
69184;BME280;56291;53.960;27.550;2023-06-22T13:49:37;98982.91;;;26.63;38.71
69184;BME280;56291;53.960;27.550;2023-06-22T13:52:04;98982.31;;;26.39;39.15
69184;BME280;56291;53.960;27.550;2023-06-22T13:54:34;98983.41;;;26.60;38.17
69184;BME280;56291;53.960;27.550;2023-06-22T13:57:03;98989.25;;;26.52;38.62
69184;BME280;56291;53.960;27.550;2023-06-22T13:59:29;98986.16;;;26.43;39.64
69184;BME280;56291;53.960;27.550;2023-06-22T14:01:56;98986.66;;;26.23;39.15
69184;BME280;56291;53.960;27.550;2023-06-22T14:04:26;98975.97;;;26.11;39.93
69184;BME280;56291;53.960;27.550;2023-06-22T14:06:54;98968.06;;;26.04;39.64
69184;BME280;56291;53.960;27.550;2023-06-22T14:09:21;98970.75;;;26.04;39.24
69184;BME280;56291;53.960;27.550;2023-06-22T14:11:47;98967.38;;;25.80;40.72
69184;BME280;56291;53.960;27.550;2023-06-22T14:14:14;98952.16;;;25.74;39.80
69184;BME280;56291;53.960;27.550;2023-06-22T14:16:40;98965.13;;;25.60;41.73
69184;BME280;56291;53.960;27.550;2023-06-22T14:19:06;98956.41;;;25.53;41.14
69184;BME280;56291;53.960;27.550;2023-06-22T14:21:32;98951.38;;;25.73;40.07
69184;BME280;56291;53.960;27.550;2023-06-22T14:23:58;98944.03;;;25.69;40.40
69184;BME280;56291;53.960;27.550;2023-06-22T14:26:24;98933.66;;;25.77;39.38
69184;BME280;56291;53.960;27.550;2023-06-22T14:28:51;98933.50;;;25.84;39.83
69184;BME280;56291;53.960;27.550;2023-06-22T14:31:18;98930.06;;;25.89;39.17
69184;BME280;56291;53.960;27.550;2023-06-22T14:33:47;98922.97;;;25.82;39.13
69184;BME280;56291;53.960;27.550;2023-06-22T14:36:17;98927.69;;;25.75;39.34
69184;BME280;56291;53.960;27.550;2023-06-22T14:38:44;98924.19;;;25.75;38.97
69184;BME280;56291;53.960;27.550;2023-06-22T14:41:10;98925.88;;;25.81;39.04
69184;BME280;56291;53.960;27.550;2023-06-22T14:43:36;98922.97;;;25.82;38.74
69184;BME280;56291;53.960;27.550;2023-06-22T14:46:02;98929.38;;;25.98;38.35
69184;BME280;56291;53.960;27.550;2023-06-22T14:48:29;98922.09;;;25.99;37.69
69184;BME280;56291;53.960;27.550;2023-06-22T14:50:56;98920.84;;;26.02;38.09
69184;BME280;56291;53.960;27.550;2023-06-22T14:53:22;98921.91;;;26.18;37.74
69184;BME280;56291;53.960;27.550;2023-06-22T14:55:49;98906.00;;;26.21;37.55
69184;BME280;56291;53.960;27.550;2023-06-22T14:58:15;98907.47;;;26.29;37.02
69184;BME280;56291;53.960;27.550;2023-06-22T15:00:41;98910.84;;;26.19;37.11
69184;BME280;56291;53.960;27.550;2023-06-22T15:03:07;98907.47;;;26.29;37.15
69184;BME280;56291;53.960;27.550;2023-06-22T15:05:37;98906.94;;;26.49;37.19
69184;BME280;56291;53.960;27.550;2023-06-22T15:08:03;98911.31;;;26.55;37.41
69184;BME280;56291;53.960;27.550;2023-06-22T15:10:29;98902.69;;;26.75;37.17
69184;BME280;56291;53.960;27.550;2023-06-22T15:12:56;98901.13;;;26.79;37.06
69184;BME280;56291;53.960;27.550;2023-06-22T15:15:22;98896.84;;;26.83;37.17
69184;BME280;56291;53.960;27.550;2023-06-22T15:17:50;98894.91;;;27.06;37.11
69184;BME280;56291;53.960;27.550;2023-06-22T15:20:16;98885.59;;;27.19;37.01
69184;BME280;56291;53.960;27.550;2023-06-22T15:22:42;98887.13;;;27.37;36.92
69184;BME280;56291;53.960;27.550;2023-06-22T15:25:08;98887.81;;;27.55;36.46
69184;BME280;56291;53.960;27.550;2023-06-22T15:27:35;98881.97;;;27.68;36.86
69184;BME280;56291;53.960;27.550;2023-06-22T15:30:02;98886.97;;;27.86;36.69
69184;BME280;56291;53.960;27.550;2023-06-22T15:32:30;98878.19;;;28.07;36.68
69184;BME280;56291;53.960;27.550;2023-06-22T15:34:56;98872.06;;;28.22;36.41
69184;BME280;56291;53.960;27.550;2023-06-22T15:37:23;98867.50;;;28.32;35.75
69184;BME280;56291;53.960;27.550;2023-06-22T15:39:52;98869.19;;;28.49;35.65
69184;BME280;56291;53.960;27.550;2023-06-22T15:42:18;98867.13;;;28.66;35.51
69184;BME280;56291;53.960;27.550;2023-06-22T15:44:44;98865.25;;;28.77;34.90
69184;BME280;56291;53.960;27.550;2023-06-22T15:47:12;98860.13;;;28.96;35.37
69184;BME280;56291;53.960;27.550;2023-06-22T15:49:39;98857.19;;;29.08;34.85
69184;BME280;56291;53.960;27.550;2023-06-22T15:52:10;98849.34;;;29.22;34.34
69184;BME280;56291;53.960;27.550;2023-06-22T15:54:36;98858.31;;;29.38;34.94
69184;BME280;56291;53.960;27.550;2023-06-22T15:57:02;98850.47;;;29.42;34.67
69184;BME280;56291;53.960;27.550;2023-06-22T15:59:28;98855.88;;;29.36;33.97
69184;BME280;56291;53.960;27.550;2023-06-22T16:01:54;98854.25;;;29.35;34.25
69184;BME280;56291;53.960;27.550;2023-06-22T16:04:21;98863.19;;;29.56;34.21
69184;BME280;56291;53.960;27.550;2023-06-22T16:06:47;98858.31;;;29.59;34.54
69184;BME280;56291;53.960;27.550;2023-06-22T16:09:13;98851.25;;;29.52;33.87
69184;BME280;56291;53.960;27.550;2023-06-22T16:11:40;98842.28;;;29.62;34.50
69184;BME280;56291;53.960;27.550;2023-06-22T16:14:06;98843.38;;;29.61;33.99
69184;BME280;56291;53.960;27.550;2023-06-22T16:16:34;98842.84;;;29.59;34.33
69184;BME280;56291;53.960;27.550;2023-06-22T16:19:03;98848.56;;;29.63;34.41
69184;BME280;56291;53.960;27.550;2023-06-22T16:21:29;98842.31;;;29.47;34.07
69184;BME280;56291;53.960;27.550;2023-06-22T16:23:55;98852.63;;;29.39;34.68
69184;BME280;56291;53.960;27.550;2023-06-22T16:26:21;98839.34;;;29.38;34.75
69184;BME280;56291;53.960;27.550;2023-06-22T16:28:47;98848.81;;;29.35;34.58
69184;BME280;56291;53.960;27.550;2023-06-22T16:31:13;98833.94;;;29.38;34.54
69184;BME280;56291;53.960;27.550;2023-06-22T16:33:42;98837.47;;;29.33;34.50
69184;BME280;56291;53.960;27.550;2023-06-22T16:36:13;98832.28;;;29.52;34.80
69184;BME280;56291;53.960;27.550;2023-06-22T16:38:39;98823.91;;;29.49;34.50
69184;BME280;56291;53.960;27.550;2023-06-22T16:41:05;98827.66;;;29.58;34.37
69184;BME280;56291;53.960;27.550;2023-06-22T16:43:33;98823.06;;;29.48;34.82
69184;BME280;56291;53.960;27.550;2023-06-22T16:45:59;98829.00;;;29.09;35.21
69184;BME280;56291;53.960;27.550;2023-06-22T16:48:26;98837.41;;;28.97;35.63
69184;BME280;56291;53.960;27.550;2023-06-22T16:50:52;98838.22;;;29.08;35.62
69184;BME280;56291;53.960;27.550;2023-06-22T16:53:18;98839.31;;;29.17;35.55
69184;BME280;56291;53.960;27.550;2023-06-22T16:55:49;98831.19;;;28.97;35.51
69184;BME280;56291;53.960;27.550;2023-06-22T16:58:15;98840.06;;;28.77;36.16
69184;BME280;56291;53.960;27.550;2023-06-22T17:00:52;98843.84;;;28.70;36.93
69184;BME280;56291;53.960;27.550;2023-06-22T17:03:29;98838.31;;;28.45;37.50
69184;BME280;56291;53.960;27.550;2023-06-22T17:05:58;98846.69;;;28.43;37.69
69184;BME280;56291;53.960;27.550;2023-06-22T17:08:34;98839.94;;;28.46;37.18
69184;BME280;56291;53.960;27.550;2023-06-22T17:11:01;98839.94;;;28.41;37.12
69184;BME280;56291;53.960;27.550;2023-06-22T17:13:27;98840.72;;;28.31;37.05
69184;BME280;56291;53.960;27.550;2023-06-22T17:16:01;98847.06;;;28.04;37.84
69184;BME280;56291;53.960;27.550;2023-06-22T17:18:29;98844.38;;;28.04;37.64
69184;BME280;56291;53.960;27.550;2023-06-22T17:20:56;98836.84;;;28.11;37.99
69184;BME280;56291;53.960;27.550;2023-06-22T17:23:24;98829.88;;;27.83;38.95
69184;BME280;56291;53.960;27.550;2023-06-22T17:25:53;98836.34;;;27.77;39.02
69184;BME280;56291;53.960;27.550;2023-06-22T17:28:19;98840.09;;;27.71;39.11
69184;BME280;56291;53.960;27.550;2023-06-22T17:31:08;98848.34;;;27.53;40.12
69184;BME280;56291;53.960;27.550;2023-06-22T17:33:36;98836.94;;;27.41;39.73
69184;BME280;56291;53.960;27.550;2023-06-22T17:36:08;98850.44;;;27.41;39.58
69184;BME280;56291;53.960;27.550;2023-06-22T17:38:36;98848.75;;;27.35;40.05
69184;BME280;56291;53.960;27.550;2023-06-22T17:41:03;98845.34;;;27.17;40.81
69184;BME280;56291;53.960;27.550;2023-06-22T17:43:29;98843.97;;;27.15;40.86
69184;BME280;56291;53.960;27.550;2023-06-22T17:45:59;98849.75;;;26.96;41.00
69184;BME280;56291;53.960;27.550;2023-06-22T17:48:30;98853.09;;;26.81;40.61
69184;BME280;56291;53.960;27.550;2023-06-22T17:50:58;98839.59;;;26.81;39.48
69184;BME280;56291;53.960;27.550;2023-06-22T17:53:26;98840.16;;;26.61;40.69
69184;BME280;56291;53.960;27.550;2023-06-22T17:55:53;98838.44;;;26.50;40.16
69184;BME280;56291;53.960;27.550;2023-06-22T17:58:20;98849.59;;;26.37;40.03
69184;BME280;56291;53.960;27.550;2023-06-22T18:00:48;98840.16;;;26.17;40.61
69184;BME280;56291;53.960;27.550;2023-06-22T18:03:14;98844.44;;;26.13;40.02
69184;BME280;56291;53.960;27.550;2023-06-22T18:05:46;98847.31;;;26.06;39.90
69184;BME280;56291;53.960;27.550;2023-06-22T18:08:14;98835.47;;;25.90;40.34
69184;BME280;56291;53.960;27.550;2023-06-22T18:10:43;98835.50;;;25.73;41.70
69184;BME280;56291;53.960;27.550;2023-06-22T18:13:11;98833.97;;;25.60;42.14
69184;BME280;56291;53.960;27.550;2023-06-22T18:15:50;98841.16;;;25.55;41.74
69184;BME280;56291;53.960;27.550;2023-06-22T18:18:17;98840.69;;;25.41;42.38
69184;BME280;56291;53.960;27.550;2023-06-22T18:20:46;98852.41;;;25.35;42.59
69184;BME280;56291;53.960;27.550;2023-06-22T18:23:13;98846.47;;;25.33;41.78
69184;BME280;56291;53.960;27.550;2023-06-22T18:25:40;98846.84;;;25.24;42.18
69184;BME280;56291;53.960;27.550;2023-06-22T18:28:12;98856.59;;;25.13;42.27
69184;BME280;56291;53.960;27.550;2023-06-22T18:30:40;98846.41;;;24.99;43.39
69184;BME280;56291;53.960;27.550;2023-06-22T18:33:07;98849.59;;;24.95;43.46
69184;BME280;56291;53.960;27.550;2023-06-22T18:35:34;98847.03;;;24.89;42.79
69184;BME280;56291;53.960;27.550;2023-06-22T18:38:02;98855.25;;;24.82;43.61
69184;BME280;56291;53.960;27.550;2023-06-22T18:40:29;98850.31;;;24.62;45.07
69184;BME280;56291;53.960;27.550;2023-06-22T18:43:00;98855.31;;;24.70;43.69
69184;BME280;56291;53.960;27.550;2023-06-22T18:45:29;98856.03;;;24.54;44.22
69184;BME280;56291;53.960;27.550;2023-06-22T18:48:03;98859.81;;;24.41;46.66
69184;BME280;56291;53.960;27.550;2023-06-22T18:50:45;98857.56;;;24.38;44.97
69184;BME280;56291;53.960;27.550;2023-06-22T18:53:26;98857.13;;;24.29;46.10
69184;BME280;56291;53.960;27.550;2023-06-22T18:56:11;98860.41;;;24.19;45.10
69184;BME280;56291;53.960;27.550;2023-06-22T18:58:38;98864.31;;;24.11;44.89
69184;BME280;56291;53.960;27.550;2023-06-22T19:01:25;98873.75;;;24.02;44.91
69184;BME280;56291;53.960;27.550;2023-06-22T19:03:52;98872.72;;;23.91;44.71
69184;BME280;56291;53.960;27.550;2023-06-22T19:09:16;98881.91;;;23.72;47.25
69184;BME280;56291;53.960;27.550;2023-06-22T19:11:45;98883.66;;;23.66;47.13
69184;BME280;56291;53.960;27.550;2023-06-22T19:14:19;98878.28;;;23.66;45.39
69184;BME280;56291;53.960;27.550;2023-06-22T19:16:57;98875.00;;;23.52;48.24
69184;BME280;56291;53.960;27.550;2023-06-22T19:19:25;98879.06;;;23.43;46.57
69184;BME280;56291;53.960;27.550;2023-06-22T19:22:00;98884.91;;;23.40;46.22
69184;BME280;56291;53.960;27.550;2023-06-22T19:24:31;98893.41;;;23.37;47.97
69184;BME280;56291;53.960;27.550;2023-06-22T19:26:57;98882.19;;;23.28;46.15
69184;BME280;56291;53.960;27.550;2023-06-22T19:29:24;98896.31;;;23.23;46.01
69184;BME280;56291;53.960;27.550;2023-06-22T19:31:54;98890.69;;;23.13;47.61
69184;BME280;56291;53.960;27.550;2023-06-22T19:34:22;98883.50;;;23.07;47.06
69184;BME280;56291;53.960;27.550;2023-06-22T19:36:49;98886.88;;;23.02;47.39
69184;BME280;56291;53.960;27.550;2023-06-22T19:39:15;98884.97;;;22.91;46.82
69184;BME280;56291;53.960;27.550;2023-06-22T19:41:41;98881.69;;;22.89;46.61
69184;BME280;56291;53.960;27.550;2023-06-22T19:44:07;98881.41;;;22.79;46.90
69184;BME280;56291;53.960;27.550;2023-06-22T19:46:35;98886.34;;;22.63;47.86
69184;BME280;56291;53.960;27.550;2023-06-22T19:49:01;98879.22;;;22.57;48.72
69184;BME280;56291;53.960;27.550;2023-06-22T19:51:34;98883.06;;;22.61;46.88
69184;BME280;56291;53.960;27.550;2023-06-22T19:54:09;98886.72;;;22.48;47.18
69184;BME280;56291;53.960;27.550;2023-06-22T19:56:42;98884.13;;;22.41;48.32
69184;BME280;56291;53.960;27.550;2023-06-22T19:59:13;98883.56;;;22.33;48.10
69184;BME280;56291;53.960;27.550;2023-06-22T20:01:41;98885.34;;;22.20;48.67
69184;BME280;56291;53.960;27.550;2023-06-22T20:04:07;98883.84;;;22.24;47.07
69184;BME280;56291;53.960;27.550;2023-06-22T20:06:34;98884.53;;;22.20;48.15
69184;BME280;56291;53.960;27.550;2023-06-22T20:09:00;98882.75;;;22.14;49.30
69184;BME280;56291;53.960;27.550;2023-06-22T20:11:32;98878.03;;;22.09;47.94
69184;BME280;56291;53.960;27.550;2023-06-22T20:14:00;98880.81;;;22.02;49.08
69184;BME280;56291;53.960;27.550;2023-06-22T20:16:29;98882.28;;;21.98;47.91
69184;BME280;56291;53.960;27.550;2023-06-22T20:19:10;98874.47;;;21.97;47.42
69184;BME280;56291;53.960;27.550;2023-06-22T20:21:45;98885.13;;;21.78;51.01
69184;BME280;56291;53.960;27.550;2023-06-22T20:24:12;98889.91;;;21.76;49.93
69184;BME280;56291;53.960;27.550;2023-06-22T20:26:46;98877.19;;;21.71;48.45
69184;BME280;56291;53.960;27.550;2023-06-22T20:29:32;98876.84;;;21.61;49.92
69184;BME280;56291;53.960;27.550;2023-06-22T20:32:08;98878.53;;;21.55;49.19
69184;BME280;56291;53.960;27.550;2023-06-22T20:34:42;98876.88;;;21.54;48.24
69184;BME280;56291;53.960;27.550;2023-06-22T20:37:11;98880.19;;;21.50;48.12
69184;BME280;56291;53.960;27.550;2023-06-22T20:39:38;98867.06;;;21.42;47.81
69184;BME280;56291;53.960;27.550;2023-06-22T20:42:05;98871.84;;;21.39;47.69
69184;BME280;56291;53.960;27.550;2023-06-22T20:44:32;98866.53;;;21.33;47.78
69184;BME280;56291;53.960;27.550;2023-06-22T20:46:58;98866.97;;;21.30;47.64
69184;BME280;56291;53.960;27.550;2023-06-22T20:49:25;98874.38;;;21.28;47.37
69184;BME280;56291;53.960;27.550;2023-06-22T20:51:54;98872.16;;;21.25;47.42
69184;BME280;56291;53.960;27.550;2023-06-22T20:54:23;98861.56;;;21.11;48.86
69184;BME280;56291;53.960;27.550;2023-06-22T20:56:50;98872.25;;;21.11;47.89
69184;BME280;56291;53.960;27.550;2023-06-22T20:59:18;98873.94;;;21.05;48.05
69184;BME280;56291;53.960;27.550;2023-06-22T21:01:44;98870.88;;;20.95;49.27
69184;BME280;56291;53.960;27.550;2023-06-22T21:04:12;98875.22;;;20.96;49.44
